sensor_id;sensor_type;location;lat;lon;timestamp;temperature;humidity
55634;DHT22;41504;53.162;6.788;2023-08-31T00:00:49;12.10;96.80
55634;DHT22;41504;53.162;6.788;2023-08-31T00:03:16;12.00;96.80
55634;DHT22;41504;53.162;6.788;2023-08-31T00:05:43;12.00;96.80
55634;DHT22;41504;53.162;6.788;2023-08-31T00:08:10;12.00;96.80
55634;DHT22;41504;53.162;6.788;2023-08-31T00:10:39;12.00;96.90
55634;DHT22;41504;53.162;6.788;2023-08-31T00:13:06;12.00;96.90
55634;DHT22;41504;53.162;6.788;2023-08-31T00:15:35;12.00;96.90
55634;DHT22;41504;53.162;6.788;2023-08-31T00:18:02;12.00;96.80
55634;DHT22;41504;53.162;6.788;2023-08-31T00:20:30;12.00;97.00
55634;DHT22;41504;53.162;6.788;2023-08-31T00:22:56;12.00;97.00
55634;DHT22;41504;53.162;6.788;2023-08-31T00:25:21;12.00;96.70
55634;DHT22;41504;53.162;6.788;2023-08-31T00:27:47;12.00;96.80
55634;DHT22;41504;53.162;6.788;2023-08-31T00:30:14;11.90;96.80
55634;DHT22;41504;53.162;6.788;2023-08-31T00:32:41;11.90;96.90
55634;DHT22;41504;53.162;6.788;2023-08-31T00:35:09;11.90;97.00
55634;DHT22;41504;53.162;6.788;2023-08-31T00:37:35;11.90;97.00
55634;DHT22;41504;53.162;6.788;2023-08-31T00:40:01;12.00;97.00
55634;DHT22;41504;53.162;6.788;2023-08-31T00:42:27;11.90;97.00
55634;DHT22;41504;53.162;6.788;2023-08-31T00:44:55;11.90;97.00
55634;DHT22;41504;53.162;6.788;2023-08-31T00:47:21;11.90;97.00
55634;DHT22;41504;53.162;6.788;2023-08-31T00:49:52;11.90;97.00
55634;DHT22;41504;53.162;6.788;2023-08-31T00:52:19;12.00;97.10
55634;DHT22;41504;53.162;6.788;2023-08-31T00:54:46;11.90;97.10
55634;DHT22;41504;53.162;6.788;2023-08-31T00:57:11;11.90;97.10
55634;DHT22;41504;53.162;6.788;2023-08-31T00:59:37;11.90;97.10
55634;DHT22;41504;53.162;6.788;2023-08-31T01:02:22;11.90;97.10
55634;DHT22;41504;53.162;6.788;2023-08-31T01:05:02;11.90;97.00
55634;DHT22;41504;53.162;6.788;2023-08-31T01:07:51;11.80;97.00
55634;DHT22;41504;53.162;6.788;2023-08-31T01:10:50;11.80;97.00
55634;DHT22;41504;53.162;6.788;2023-08-31T01:13:22;11.80;97.00
55634;DHT22;41504;53.162;6.788;2023-08-31T01:15:54;11.80;97.10
55634;DHT22;41504;53.162;6.788;2023-08-31T01:18:22;11.80;97.10
55634;DHT22;41504;53.162;6.788;2023-08-31T01:21:12;11.80;97.10
55634;DHT22;41504;53.162;6.788;2023-08-31T01:23:55;11.80;97.00
55634;DHT22;41504;53.162;6.788;2023-08-31T01:26:22;11.80;97.10
55634;DHT22;41504;53.162;6.788;2023-08-31T01:28:48;11.80;97.10
55634;DHT22;41504;53.162;6.788;2023-08-31T01:31:15;11.80;97.10
55634;DHT22;41504;53.162;6.788;2023-08-31T01:33:41;11.80;97.30
55634;DHT22;41504;53.162;6.788;2023-08-31T01:36:20;11.80;97.00
55634;DHT22;41504;53.162;6.788;2023-08-31T01:38:52;11.70;97.00
55634;DHT22;41504;53.162;6.788;2023-08-31T01:41:21;11.70;97.00
55634;DHT22;41504;53.162;6.788;2023-08-31T01:43:51;11.60;97.00
55634;DHT22;41504;53.162;6.788;2023-08-31T01:46:18;11.60;97.00
55634;DHT22;41504;53.162;6.788;2023-08-31T01:48:44;11.60;97.00
55634;DHT22;41504;53.162;6.788;2023-08-31T01:51:10;11.60;97.00
55634;DHT22;41504;53.162;6.788;2023-08-31T01:53:39;11.50;97.10
55634;DHT22;41504;53.162;6.788;2023-08-31T01:56:05;11.60;97.10
55634;DHT22;41504;53.162;6.788;2023-08-31T01:58:31;11.40;97.10
55634;DHT22;41504;53.162;6.788;2023-08-31T02:00:56;11.50;97.20
55634;DHT22;41504;53.162;6.788;2023-08-31T02:03:22;11.50;97.20
55634;DHT22;41504;53.162;6.788;2023-08-31T02:05:48;11.50;97.10
55634;DHT22;41504;53.162;6.788;2023-08-31T02:08:13;11.50;97.10
55634;DHT22;41504;53.162;6.788;2023-08-31T02:10:43;11.50;97.10
55634;DHT22;41504;53.162;6.788;2023-08-31T02:13:09;11.50;97.10
55634;DHT22;41504;53.162;6.788;2023-08-31T02:15:38;11.40;97.10
55634;DHT22;41504;53.162;6.788;2023-08-31T02:18:04;11.40;97.10
55634;DHT22;41504;53.162;6.788;2023-08-31T02:20:30;11.30;97.10
55634;DHT22;41504;53.162;6.788;2023-08-31T02:22:56;11.30;97.10
55634;DHT22;41504;53.162;6.788;2023-08-31T02:25:22;11.30;97.20
55634;DHT22;41504;53.162;6.788;2023-08-31T02:27:47;11.30;97.20
55634;DHT22;41504;53.162;6.788;2023-08-31T02:30:16;11.20;97.10
55634;DHT22;41504;53.162;6.788;2023-08-31T02:32:42;11.20;97.30
55634;DHT22;41504;53.162;6.788;2023-08-31T02:35:08;11.20;97.30
55634;DHT22;41504;53.162;6.788;2023-08-31T02:37:34;11.20;97.30
55634;DHT22;41504;53.162;6.788;2023-08-31T02:40:04;11.10;97.20
55634;DHT22;41504;53.162;6.788;2023-08-31T02:42:34;11.10;97.30
55634;DHT22;41504;53.162;6.788;2023-08-31T02:45:03;11.10;97.30
55634;DHT22;41504;53.162;6.788;2023-08-31T02:47:29;11.10;97.30
55634;DHT22;41504;53.162;6.788;2023-08-31T02:49:55;11.10;97.30
55634;DHT22;41504;53.162;6.788;2023-08-31T02:52:21;11.00;97.30
55634;DHT22;41504;53.162;6.788;2023-08-31T02:54:47;11.10;97.40
55634;DHT22;41504;53.162;6.788;2023-08-31T02:57:13;11.10;97.40
55634;DHT22;41504;53.162;6.788;2023-08-31T02:59:40;11.10;97.40
55634;DHT22;41504;53.162;6.788;2023-08-31T03:02:08;11.10;97.40
55634;DHT22;41504;53.162;6.788;2023-08-31T03:04:33;11.10;97.40
55634;DHT22;41504;53.162;6.788;2023-08-31T03:06:59;11.10;97.40
55634;DHT22;41504;53.162;6.788;2023-08-31T03:09:25;11.10;97.40
55634;DHT22;41504;53.162;6.788;2023-08-31T03:11:51;11.10;97.40
55634;DHT22;41504;53.162;6.788;2023-08-31T03:14:17;11.20;97.40
55634;DHT22;41504;53.162;6.788;2023-08-31T03:16:43;11.20;97.40
55634;DHT22;41504;53.162;6.788;2023-08-31T03:19:08;11.10;97.30
55634;DHT22;41504;53.162;6.788;2023-08-31T03:21:34;11.10;97.30
55634;DHT22;41504;53.162;6.788;2023-08-31T03:24:00;11.10;97.40
55634;DHT22;41504;53.162;6.788;2023-08-31T03:26:25;11.10;97.40
55634;DHT22;41504;53.162;6.788;2023-08-31T03:28:51;11.10;97.30
55634;DHT22;41504;53.162;6.788;2023-08-31T03:31:17;11.10;97.40
55634;DHT22;41504;53.162;6.788;2023-08-31T03:33:43;11.10;97.40
55634;DHT22;41504;53.162;6.788;2023-08-31T03:36:08;11.10;97.30
55634;DHT22;41504;53.162;6.788;2023-08-31T03:38:34;11.10;97.40
55634;DHT22;41504;53.162;6.788;2023-08-31T03:41:03;11.10;97.30
55634;DHT22;41504;53.162;6.788;2023-08-31T03:43:29;11.10;97.40
55634;DHT22;41504;53.162;6.788;2023-08-31T03:45:56;11.10;97.40
55634;DHT22;41504;53.162;6.788;2023-08-31T03:48:25;11.10;97.40
55634;DHT22;41504;53.162;6.788;2023-08-31T03:50:52;11.10;97.30
55634;DHT22;41504;53.162;6.788;2023-08-31T03:53:18;11.10;97.30
55634;DHT22;41504;53.162;6.788;2023-08-31T03:55:44;11.10;97.30
55634;DHT22;41504;53.162;6.788;2023-08-31T03:58:10;11.10;97.40
55634;DHT22;41504;53.162;6.788;2023-08-31T04:00:37;11.10;97.40
55634;DHT22;41504;53.162;6.788;2023-08-31T04:03:03;11.10;97.40
55634;DHT22;41504;53.162;6.788;2023-08-31T04:05:32;11.00;97.40
55634;DHT22;41504;53.162;6.788;2023-08-31T04:07:59;11.00;97.50
55634;DHT22;41504;53.162;6.788;2023-08-31T04:10:25;11.10;97.60
55634;DHT22;41504;53.162;6.788;2023-08-31T04:12:52;11.00;97.50
55634;DHT22;41504;53.162;6.788;2023-08-31T04:15:18;11.10;97.60
55634;DHT22;41504;53.162;6.788;2023-08-31T04:17:44;11.00;97.60
55634;DHT22;41504;53.162;6.788;2023-08-31T04:20:10;11.00;97.60
55634;DHT22;41504;53.162;6.788;2023-08-31T04:22:39;11.00;97.70
55634;DHT22;41504;53.162;6.788;2023-08-31T04:25:05;11.00;97.70
55634;DHT22;41504;53.162;6.788;2023-08-31T04:27:31;11.00;97.80
55634;DHT22;41504;53.162;6.788;2023-08-31T04:29:59;11.00;97.80
55634;DHT22;41504;53.162;6.788;2023-08-31T04:32:24;10.90;97.90
55634;DHT22;41504;53.162;6.788;2023-08-31T04:34:51;10.90;97.90
55634;DHT22;41504;53.162;6.788;2023-08-31T04:37:17;10.90;98.00
55634;DHT22;41504;53.162;6.788;2023-08-31T04:39:43;10.90;98.00
55634;DHT22;41504;53.162;6.788;2023-08-31T04:42:08;10.80;98.10
55634;DHT22;41504;53.162;6.788;2023-08-31T04:44:34;10.80;98.10
55634;DHT22;41504;53.162;6.788;2023-08-31T04:47:00;10.80;98.10
55634;DHT22;41504;53.162;6.788;2023-08-31T04:49:26;10.80;98.20
55634;DHT22;41504;53.162;6.788;2023-08-31T04:51:52;10.80;98.20
55634;DHT22;41504;53.162;6.788;2023-08-31T04:54:18;10.80;98.20
55634;DHT22;41504;53.162;6.788;2023-08-31T04:56:44;10.80;98.20
55634;DHT22;41504;53.162;6.788;2023-08-31T04:59:09;10.80;98.20
55634;DHT22;41504;53.162;6.788;2023-08-31T05:01:35;10.80;98.30
55634;DHT22;41504;53.162;6.788;2023-08-31T05:04:02;10.80;98.30
55634;DHT22;41504;53.162;6.788;2023-08-31T05:06:28;10.80;98.30
55634;DHT22;41504;53.162;6.788;2023-08-31T05:08:54;10.80;98.30
55634;DHT22;41504;53.162;6.788;2023-08-31T05:11:19;10.80;98.40
55634;DHT22;41504;53.162;6.788;2023-08-31T05:13:46;10.80;98.40
55634;DHT22;41504;53.162;6.788;2023-08-31T05:16:12;10.80;98.40
55634;DHT22;41504;53.162;6.788;2023-08-31T05:18:38;10.90;98.40
55634;DHT22;41504;53.162;6.788;2023-08-31T05:21:05;10.90;98.40
55634;DHT22;41504;53.162;6.788;2023-08-31T05:23:31;10.90;98.50
55634;DHT22;41504;53.162;6.788;2023-08-31T05:25:57;11.00;98.50
55634;DHT22;41504;53.162;6.788;2023-08-31T05:28:23;11.00;98.50
55634;DHT22;41504;53.162;6.788;2023-08-31T05:30:55;11.10;98.60
55634;DHT22;41504;53.162;6.788;2023-08-31T05:33:21;11.10;98.60
55634;DHT22;41504;53.162;6.788;2023-08-31T05:35:52;11.10;98.50
55634;DHT22;41504;53.162;6.788;2023-08-31T05:38:18;11.10;98.60
55634;DHT22;41504;53.162;6.788;2023-08-31T05:40:44;11.20;98.70
55634;DHT22;41504;53.162;6.788;2023-08-31T05:43:12;11.30;98.80
55634;DHT22;41504;53.162;6.788;2023-08-31T05:45:38;11.30;98.70
55634;DHT22;41504;53.162;6.788;2023-08-31T05:48:04;11.40;98.80
55634;DHT22;41504;53.162;6.788;2023-08-31T05:50:30;11.40;98.80
55634;DHT22;41504;53.162;6.788;2023-08-31T05:52:56;11.40;98.80
55634;DHT22;41504;53.162;6.788;2023-08-31T05:55:22;11.50;98.80
55634;DHT22;41504;53.162;6.788;2023-08-31T05:57:48;11.50;98.80
55634;DHT22;41504;53.162;6.788;2023-08-31T06:00:14;11.60;98.90
55634;DHT22;41504;53.162;6.788;2023-08-31T06:02:40;11.70;98.80
55634;DHT22;41504;53.162;6.788;2023-08-31T06:05:07;11.70;98.90
55634;DHT22;41504;53.162;6.788;2023-08-31T06:07:32;11.80;98.90
55634;DHT22;41504;53.162;6.788;2023-08-31T06:09:58;11.80;98.90
55634;DHT22;41504;53.162;6.788;2023-08-31T06:12:24;11.90;98.90
55634;DHT22;41504;53.162;6.788;2023-08-31T06:14:50;11.90;98.80
55634;DHT22;41504;53.162;6.788;2023-08-31T06:17:15;12.00;98.80
55634;DHT22;41504;53.162;6.788;2023-08-31T06:19:41;12.00;98.70
55634;DHT22;41504;53.162;6.788;2023-08-31T06:22:08;12.10;98.70
55634;DHT22;41504;53.162;6.788;2023-08-31T06:24:34;12.20;98.70
55634;DHT22;41504;53.162;6.788;2023-08-31T06:27:00;12.20;98.60
55634;DHT22;41504;53.162;6.788;2023-08-31T06:29:26;12.30;98.60
55634;DHT22;41504;53.162;6.788;2023-08-31T06:31:52;12.40;98.60
55634;DHT22;41504;53.162;6.788;2023-08-31T06:34:17;12.40;98.50
55634;DHT22;41504;53.162;6.788;2023-08-31T06:36:43;12.50;98.50
55634;DHT22;41504;53.162;6.788;2023-08-31T06:39:09;12.50;98.40
55634;DHT22;41504;53.162;6.788;2023-08-31T06:41:34;12.60;98.40
55634;DHT22;41504;53.162;6.788;2023-08-31T06:44:01;12.70;98.40
55634;DHT22;41504;53.162;6.788;2023-08-31T06:46:27;12.80;98.30
55634;DHT22;41504;53.162;6.788;2023-08-31T06:48:54;12.80;98.30
55634;DHT22;41504;53.162;6.788;2023-08-31T06:51:19;12.90;98.30
55634;DHT22;41504;53.162;6.788;2023-08-31T06:53:46;13.00;98.30
55634;DHT22;41504;53.162;6.788;2023-08-31T06:56:12;13.00;98.30
55634;DHT22;41504;53.162;6.788;2023-08-31T06:58:38;13.10;98.20
55634;DHT22;41504;53.162;6.788;2023-08-31T07:01:06;13.10;98.20
55634;DHT22;41504;53.162;6.788;2023-08-31T07:03:32;13.20;98.10
55634;DHT22;41504;53.162;6.788;2023-08-31T07:05:58;13.30;98.10
55634;DHT22;41504;53.162;6.788;2023-08-31T07:08:24;13.30;98.00
55634;DHT22;41504;53.162;6.788;2023-08-31T07:10:50;13.40;97.90
55634;DHT22;41504;53.162;6.788;2023-08-31T07:13:16;13.50;97.90
55634;DHT22;41504;53.162;6.788;2023-08-31T07:15:42;13.60;97.80
55634;DHT22;41504;53.162;6.788;2023-08-31T07:18:07;13.60;97.70
55634;DHT22;41504;53.162;6.788;2023-08-31T07:20:33;13.70;97.50
55634;DHT22;41504;53.162;6.788;2023-08-31T07:22:59;13.80;97.40
55634;DHT22;41504;53.162;6.788;2023-08-31T07:25:25;13.90;97.30
55634;DHT22;41504;53.162;6.788;2023-08-31T07:27:50;14.00;97.30
55634;DHT22;41504;53.162;6.788;2023-08-31T07:30:17;14.10;97.20
55634;DHT22;41504;53.162;6.788;2023-08-31T07:32:43;14.10;97.10
55634;DHT22;41504;53.162;6.788;2023-08-31T07:35:09;14.20;97.00
55634;DHT22;41504;53.162;6.788;2023-08-31T07:37:35;14.30;96.80
55634;DHT22;41504;53.162;6.788;2023-08-31T07:40:03;14.30;96.70
55634;DHT22;41504;53.162;6.788;2023-08-31T07:42:34;14.30;96.70
55634;DHT22;41504;53.162;6.788;2023-08-31T07:45:00;14.40;96.40
55634;DHT22;41504;53.162;6.788;2023-08-31T07:47:25;14.50;96.30
55634;DHT22;41504;53.162;6.788;2023-08-31T07:49:51;14.50;96.20
55634;DHT22;41504;53.162;6.788;2023-08-31T07:52:17;14.60;96.10
55634;DHT22;41504;53.162;6.788;2023-08-31T07:54:42;14.70;96.10
55634;DHT22;41504;53.162;6.788;2023-08-31T07:57:08;14.70;96.10
55634;DHT22;41504;53.162;6.788;2023-08-31T07:59:34;14.80;96.00
55634;DHT22;41504;53.162;6.788;2023-08-31T08:01:59;14.90;95.70
55634;DHT22;41504;53.162;6.788;2023-08-31T08:04:25;15.00;95.50
55634;DHT22;41504;53.162;6.788;2023-08-31T08:06:52;15.00;95.50
55634;DHT22;41504;53.162;6.788;2023-08-31T08:09:18;15.10;95.30
55634;DHT22;41504;53.162;6.788;2023-08-31T08:11:43;15.10;95.10
55634;DHT22;41504;53.162;6.788;2023-08-31T08:14:09;15.20;95.00
55634;DHT22;41504;53.162;6.788;2023-08-31T08:16:35;15.20;94.80
55634;DHT22;41504;53.162;6.788;2023-08-31T08:19:06;15.30;94.40
55634;DHT22;41504;53.162;6.788;2023-08-31T08:21:32;15.40;94.00
55634;DHT22;41504;53.162;6.788;2023-08-31T08:23:57;15.50;94.10
55634;DHT22;41504;53.162;6.788;2023-08-31T08:26:23;15.50;94.10
55634;DHT22;41504;53.162;6.788;2023-08-31T08:28:50;15.60;93.70
55634;DHT22;41504;53.162;6.788;2023-08-31T08:31:15;15.70;93.40
55634;DHT22;41504;53.162;6.788;2023-08-31T08:33:41;15.80;93.20
55634;DHT22;41504;53.162;6.788;2023-08-31T08:36:07;15.80;93.20
55634;DHT22;41504;53.162;6.788;2023-08-31T08:38:32;15.90;92.50
55634;DHT22;41504;53.162;6.788;2023-08-31T08:41:06;15.90;92.30
55634;DHT22;41504;53.162;6.788;2023-08-31T08:43:33;16.00;91.70
55634;DHT22;41504;53.162;6.788;2023-08-31T08:46:05;16.10;91.50
55634;DHT22;41504;53.162;6.788;2023-08-31T08:48:33;16.10;91.80
55634;DHT22;41504;53.162;6.788;2023-08-31T08:51:02;16.20;91.20
55634;DHT22;41504;53.162;6.788;2023-08-31T08:53:28;16.20;91.50
55634;DHT22;41504;53.162;6.788;2023-08-31T08:55:54;16.20;91.30
55634;DHT22;41504;53.162;6.788;2023-08-31T08:58:20;16.20;91.30
55634;DHT22;41504;53.162;6.788;2023-08-31T09:00:46;16.30;91.30
55634;DHT22;41504;53.162;6.788;2023-08-31T09:03:13;16.30;91.10
55634;DHT22;41504;53.162;6.788;2023-08-31T09:05:39;16.40;91.20
55634;DHT22;41504;53.162;6.788;2023-08-31T09:08:07;16.50;90.80
55634;DHT22;41504;53.162;6.788;2023-08-31T09:10:37;16.50;91.00
55634;DHT22;41504;53.162;6.788;2023-08-31T09:13:14;16.60;91.00
55634;DHT22;41504;53.162;6.788;2023-08-31T09:18:13;16.70;90.50
55634;DHT22;41504;53.162;6.788;2023-08-31T09:20:44;16.80;90.40
55634;DHT22;41504;53.162;6.788;2023-08-31T09:23:10;16.80;90.00
55634;DHT22;41504;53.162;6.788;2023-08-31T09:25:44;16.90;89.10
55634;DHT22;41504;53.162;6.788;2023-08-31T09:28:14;17.00;89.10
55634;DHT22;41504;53.162;6.788;2023-08-31T09:30:40;17.10;87.40
55634;DHT22;41504;53.162;6.788;2023-08-31T09:33:14;17.30;87.00
55634;DHT22;41504;53.162;6.788;2023-08-31T09:35:40;17.30;87.30
55634;DHT22;41504;53.162;6.788;2023-08-31T09:38:08;17.20;88.50
55634;DHT22;41504;53.162;6.788;2023-08-31T09:40:36;17.00;89.70
55634;DHT22;41504;53.162;6.788;2023-08-31T09:43:02;16.80;90.20
55634;DHT22;41504;53.162;6.788;2023-08-31T09:45:33;16.50;90.60
55634;DHT22;41504;53.162;6.788;2023-08-31T09:48:00;16.20;91.00
55634;DHT22;41504;53.162;6.788;2023-08-31T09:50:31;16.00;91.10
55634;DHT22;41504;53.162;6.788;2023-08-31T09:53:01;15.80;91.20
55634;DHT22;41504;53.162;6.788;2023-08-31T09:55:29;15.60;91.30
55634;DHT22;41504;53.162;6.788;2023-08-31T09:57:57;15.50;91.60
55634;DHT22;41504;53.162;6.788;2023-08-31T10:00:27;15.40;91.50
55634;DHT22;41504;53.162;6.788;2023-08-31T10:03:00;15.40;91.60
55634;DHT22;41504;53.162;6.788;2023-08-31T10:05:27;15.50;91.60
55634;DHT22;41504;53.162;6.788;2023-08-31T10:07:53;15.70;91.70
55634;DHT22;41504;53.162;6.788;2023-08-31T10:10:20;15.80;91.60
55634;DHT22;41504;53.162;6.788;2023-08-31T10:12:51;16.00;91.70
55634;DHT22;41504;53.162;6.788;2023-08-31T10:15:19;16.10;91.70
55634;DHT22;41504;53.162;6.788;2023-08-31T10:17:46;16.30;91.70
55634;DHT22;41504;53.162;6.788;2023-08-31T10:20:15;16.50;91.70
55634;DHT22;41504;53.162;6.788;2023-08-31T10:22:42;16.60;91.60
55634;DHT22;41504;53.162;6.788;2023-08-31T10:25:08;16.60;91.80
55634;DHT22;41504;53.162;6.788;2023-08-31T10:27:42;16.70;91.80
55634;DHT22;41504;53.162;6.788;2023-08-31T10:30:24;16.80;91.80
55634;DHT22;41504;53.162;6.788;2023-08-31T10:35:55;17.00;90.60
55634;DHT22;41504;53.162;6.788;2023-08-31T10:38:25;16.90;89.00
55634;DHT22;41504;53.162;6.788;2023-08-31T10:43:48;16.60;87.90
55634;DHT22;41504;53.162;6.788;2023-08-31T10:46:19;16.50;89.10
55634;DHT22;41504;53.162;6.788;2023-08-31T10:48:54;16.40;89.70
55634;DHT22;41504;53.162;6.788;2023-08-31T10:51:31;16.30;89.90
55634;DHT22;41504;53.162;6.788;2023-08-31T10:54:09;16.20;90.00
55634;DHT22;41504;53.162;6.788;2023-08-31T10:59:46;16.40;89.20
55634;DHT22;41504;53.162;6.788;2023-08-31T11:02:37;16.60;90.20
55634;DHT22;41504;53.162;6.788;2023-08-31T11:05:17;16.80;85.80
55634;DHT22;41504;53.162;6.788;2023-08-31T11:10:21;17.30;85.30
55634;DHT22;41504;53.162;6.788;2023-08-31T11:12:54;17.40;84.00
55634;DHT22;41504;53.162;6.788;2023-08-31T11:15:22;17.60;84.70
55634;DHT22;41504;53.162;6.788;2023-08-31T11:17:50;17.80;83.40
55634;DHT22;41504;53.162;6.788;2023-08-31T11:20:18;17.70;83.70
55634;DHT22;41504;53.162;6.788;2023-08-31T11:22:48;17.60;84.20
55634;DHT22;41504;53.162;6.788;2023-08-31T11:25:20;17.50;84.50
55634;DHT22;41504;53.162;6.788;2023-08-31T11:28:00;17.40;85.40
55634;DHT22;41504;53.162;6.788;2023-08-31T11:30:28;17.30;86.30
55634;DHT22;41504;53.162;6.788;2023-08-31T11:32:57;17.20;86.90
55634;DHT22;41504;53.162;6.788;2023-08-31T11:35:23;17.40;85.40
55634;DHT22;41504;53.162;6.788;2023-08-31T11:37:55;17.60;84.40
55634;DHT22;41504;53.162;6.788;2023-08-31T11:40:21;17.80;83.00
55634;DHT22;41504;53.162;6.788;2023-08-31T11:42:48;18.00;82.50
55634;DHT22;41504;53.162;6.788;2023-08-31T11:45:15;18.10;82.80
55634;DHT22;41504;53.162;6.788;2023-08-31T11:47:43;18.20;82.30
55634;DHT22;41504;53.162;6.788;2023-08-31T11:50:10;18.30;81.30
55634;DHT22;41504;53.162;6.788;2023-08-31T11:52:37;18.40;81.60
55634;DHT22;41504;53.162;6.788;2023-08-31T11:55:10;18.40;80.90
55634;DHT22;41504;53.162;6.788;2023-08-31T11:57:37;18.30;80.90
55634;DHT22;41504;53.162;6.788;2023-08-31T12:00:03;18.20;80.50
55634;DHT22;41504;53.162;6.788;2023-08-31T12:02:35;18.10;80.50
55634;DHT22;41504;53.162;6.788;2023-08-31T12:05:01;17.90;80.50
55634;DHT22;41504;53.162;6.788;2023-08-31T12:07:27;17.70;81.80
55634;DHT22;41504;53.162;6.788;2023-08-31T12:09:53;17.60;82.20
55634;DHT22;41504;53.162;6.788;2023-08-31T12:12:22;17.40;81.00
55634;DHT22;41504;53.162;6.788;2023-08-31T12:14:52;17.30;81.50
55634;DHT22;41504;53.162;6.788;2023-08-31T12:17:18;17.20;81.30
55634;DHT22;41504;53.162;6.788;2023-08-31T12:19:44;17.10;82.50
55634;DHT22;41504;53.162;6.788;2023-08-31T12:22:11;17.10;80.30
55634;DHT22;41504;53.162;6.788;2023-08-31T12:24:41;17.00;80.20
55634;DHT22;41504;53.162;6.788;2023-08-31T12:27:10;16.80;81.40
55634;DHT22;41504;53.162;6.788;2023-08-31T12:29:36;16.50;83.90
55634;DHT22;41504;53.162;6.788;2023-08-31T12:32:02;16.10;86.80
55634;DHT22;41504;53.162;6.788;2023-08-31T12:34:29;16.00;88.80
55634;DHT22;41504;53.162;6.788;2023-08-31T12:36:57;15.90;90.10
55634;DHT22;41504;53.162;6.788;2023-08-31T12:39:26;15.80;90.50
55634;DHT22;41504;53.162;6.788;2023-08-31T12:41:52;15.90;90.90
55634;DHT22;41504;53.162;6.788;2023-08-31T12:44:17;15.90;91.50
55634;DHT22;41504;53.162;6.788;2023-08-31T12:46:43;16.20;91.70
55634;DHT22;41504;53.162;6.788;2023-08-31T12:49:09;16.50;91.70
55634;DHT22;41504;53.162;6.788;2023-08-31T12:51:34;16.90;91.30
55634;DHT22;41504;53.162;6.788;2023-08-31T12:54:00;17.20;90.80
55634;DHT22;41504;53.162;6.788;2023-08-31T12:56:26;17.30;90.60
55634;DHT22;41504;53.162;6.788;2023-08-31T12:58:53;17.40;90.50
55634;DHT22;41504;53.162;6.788;2023-08-31T13:01:20;17.30;90.30
55634;DHT22;41504;53.162;6.788;2023-08-31T13:03:46;17.20;90.20
55634;DHT22;41504;53.162;6.788;2023-08-31T13:06:13;17.10;89.70
55634;DHT22;41504;53.162;6.788;2023-08-31T13:08:39;16.90;89.00
55634;DHT22;41504;53.162;6.788;2023-08-31T13:11:05;16.80;90.00
55634;DHT22;41504;53.162;6.788;2023-08-31T13:13:32;16.60;90.50
55634;DHT22;41504;53.162;6.788;2023-08-31T13:15:58;16.60;90.60
55634;DHT22;41504;53.162;6.788;2023-08-31T13:18:23;16.70;90.80
55634;DHT22;41504;53.162;6.788;2023-08-31T13:20:53;16.90;90.70
55634;DHT22;41504;53.162;6.788;2023-08-31T13:23:19;17.20;90.10
55634;DHT22;41504;53.162;6.788;2023-08-31T13:25:46;17.30;89.00
55634;DHT22;41504;53.162;6.788;2023-08-31T13:28:12;17.40;88.50
55634;DHT22;41504;53.162;6.788;2023-08-31T13:30:38;17.40;89.00
55634;DHT22;41504;53.162;6.788;2023-08-31T13:33:04;17.30;89.50
55634;DHT22;41504;53.162;6.788;2023-08-31T13:35:30;17.30;90.10
55634;DHT22;41504;53.162;6.788;2023-08-31T13:37:56;17.30;90.30
55634;DHT22;41504;53.162;6.788;2023-08-31T13:40:22;17.30;90.50
55634;DHT22;41504;53.162;6.788;2023-08-31T13:42:55;17.30;90.90
55634;DHT22;41504;53.162;6.788;2023-08-31T13:45:22;17.40;90.80
55634;DHT22;41504;53.162;6.788;2023-08-31T13:47:48;17.50;90.80
55634;DHT22;41504;53.162;6.788;2023-08-31T13:50:16;17.50;90.20
55634;DHT22;41504;53.162;6.788;2023-08-31T13:52:41;17.40;90.30
55634;DHT22;41504;53.162;6.788;2023-08-31T13:55:07;17.40;90.40
55634;DHT22;41504;53.162;6.788;2023-08-31T13:57:33;17.40;90.40
55634;DHT22;41504;53.162;6.788;2023-08-31T13:59:59;17.40;90.50
55634;DHT22;41504;53.162;6.788;2023-08-31T14:02:25;17.70;90.50
55634;DHT22;41504;53.162;6.788;2023-08-31T14:04:51;17.90;90.40
55634;DHT22;41504;53.162;6.788;2023-08-31T14:07:18;18.20;90.10
55634;DHT22;41504;53.162;6.788;2023-08-31T14:09:44;18.40;87.20
55634;DHT22;41504;53.162;6.788;2023-08-31T14:12:09;18.60;86.10
55634;DHT22;41504;53.162;6.788;2023-08-31T14:14:35;18.90;83.80
55634;DHT22;41504;53.162;6.788;2023-08-31T14:17:01;19.00;84.00
55634;DHT22;41504;53.162;6.788;2023-08-31T14:19:28;19.30;83.30
55634;DHT22;41504;53.162;6.788;2023-08-31T14:21:53;19.40;81.50
55634;DHT22;41504;53.162;6.788;2023-08-31T14:24:19;19.60;81.20
55634;DHT22;41504;53.162;6.788;2023-08-31T14:26:45;19.70;79.70
55634;DHT22;41504;53.162;6.788;2023-08-31T14:29:11;19.80;78.80
55634;DHT22;41504;53.162;6.788;2023-08-31T14:31:37;19.90;75.90
55634;DHT22;41504;53.162;6.788;2023-08-31T14:34:03;19.90;76.00
55634;DHT22;41504;53.162;6.788;2023-08-31T14:36:29;19.90;75.20
55634;DHT22;41504;53.162;6.788;2023-08-31T14:38:54;19.70;71.80
55634;DHT22;41504;53.162;6.788;2023-08-31T14:41:20;19.30;74.50
55634;DHT22;41504;53.162;6.788;2023-08-31T14:43:46;19.10;75.40
55634;DHT22;41504;53.162;6.788;2023-08-31T14:46:12;18.70;76.90
55634;DHT22;41504;53.162;6.788;2023-08-31T14:48:37;18.30;80.50
55634;DHT22;41504;53.162;6.788;2023-08-31T14:51:03;18.10;83.00
55634;DHT22;41504;53.162;6.788;2023-08-31T14:53:29;18.00;83.80
55634;DHT22;41504;53.162;6.788;2023-08-31T14:55:55;17.90;83.90
55634;DHT22;41504;53.162;6.788;2023-08-31T14:58:21;17.80;85.20
55634;DHT22;41504;53.162;6.788;2023-08-31T15:00:46;17.70;85.50
55634;DHT22;41504;53.162;6.788;2023-08-31T15:03:12;17.70;85.20
55634;DHT22;41504;53.162;6.788;2023-08-31T15:05:38;17.70;85.70
55634;DHT22;41504;53.162;6.788;2023-08-31T15:08:07;17.70;85.90
55634;DHT22;41504;53.162;6.788;2023-08-31T15:10:33;17.70;85.40
55634;DHT22;41504;53.162;6.788;2023-08-31T15:12:59;17.70;85.90
55634;DHT22;41504;53.162;6.788;2023-08-31T15:15:29;17.80;85.70
55634;DHT22;41504;53.162;6.788;2023-08-31T15:17:55;17.90;86.30
55634;DHT22;41504;53.162;6.788;2023-08-31T15:20:21;18.00;85.70
55634;DHT22;41504;53.162;6.788;2023-08-31T15:22:47;18.10;85.40
55634;DHT22;41504;53.162;6.788;2023-08-31T15:25:14;18.20;84.90
55634;DHT22;41504;53.162;6.788;2023-08-31T15:27:41;18.20;84.70
55634;DHT22;41504;53.162;6.788;2023-08-31T15:30:08;18.30;85.00
55634;DHT22;41504;53.162;6.788;2023-08-31T15:32:35;18.30;85.20
55634;DHT22;41504;53.162;6.788;2023-08-31T15:35:01;18.20;83.70
55634;DHT22;41504;53.162;6.788;2023-08-31T15:37:26;18.10;83.90
55634;DHT22;41504;53.162;6.788;2023-08-31T15:39:52;18.00;83.80
55634;DHT22;41504;53.162;6.788;2023-08-31T15:42:18;18.00;82.40
55634;DHT22;41504;53.162;6.788;2023-08-31T15:44:44;18.00;81.10